Tiempo atmosférico en la estación meteorológica de Llerena, Badajoz (655 m.)



Fecha
DESCASC
Temp. máxima en grados centígrados (hora)
DESCASC
Temp. mínima en grados centígrados (hora)
DESCASC
Temp. media en grados centígrados
DESCASC
Racha de viento máxima en m/sg (hora)
DESCASC
Velocidad máxima media en intervalos de 10 minutos(hora)
DESCASC
Precipitaciones diarias en mm
DESCASC
Precipitaciones de 00:00 a 06:00 en mm
DESCASC
Precipitaciones de 06:00 a 12:00 en mm
DESCASC
Precipitaciones de 12:00 a 18:00 en mm
DESCASC
Precipitaciones de 18:00 a 24:00 en mm
DESCASC
18-04-2019 16.7 (14:30) 8.3 (23:59) 12.5 10 (18:50) 7.22 (00:10) 0.4 0 0.4 0 0
17-04-2019 19.3 (14:50) 9.4 (23:59) 14.3 14.72 (15:40) 10 (14:20) 0.2 0 0 0 0.2
16-04-2019 23.2 (17:00) 6.7 (00:00) 15 10.28 (20:10) 6.94 (20:40) 0 0 0 0 0
15-04-2019 22.1 (15:50) 10.8 (00:00) 16.5 12.78 (17:10) 8.89 (17:10) 0 0 0 0 0
14-04-2019 24 (15:50) 10.7 (00:00) 17.3 7.78 (23:30) 6.11 (22:30) 0 0 0 0 0
13-04-2019 22.4 (16:30) 8.9 (00:00) 15.6 8.06 (17:20) 4.17 (18:20) 0 0 0 0 0
12-04-2019 20 (16:50) 6.4 (00:00) 13.2 6.67 (16:40) 4.17 (18:50) 0 0 0 0 0
11-04-2019 18.1 (17:10) 4.6 (00:00) 11.4 7.78 (15:40) 5 (00:10) 0 0 0 0 0
10-04-2019 15.6 (16:30) 5.1 (00:00) 10.4 12.5 (16:30) 8.06 (15:20) 0 0 0 0 0
09-04-2019 14.2 (16:00) 6.1 (00:00) 10.1 13.61 (18:00) 9.72 (18:00) 2.4 0 1.8 0.4 0.2
08-04-2019 16.2 (16:30) 7.3 (00:00) 11.8 12.78 (16:50) 8.06 (16:40) 5.6 1.2 4.4 0 0
07-04-2019 11.5 (18:00) 5.5 (00:00) 8.5 11.39 (00:50) 7.5 (00:50) 2.8 0 0.4 0.8 1.6
06-04-2019 13.5 (16:00) 3.9 (00:00) 8.7 16.11 (17:50) 9.17 (13:40) 3 0 0.4 2.6 0
05-04-2019 10.8 (18:00) 4.5 (00:00) 7.7 15.56 (19:10) 10.28 (19:10) 7.2 1.6 4.4 0 1.2
04-04-2019 16.2 (17:30) 2.3 (00:00) 9.3 10.56 (18:30) 6.67 (23:50) 0 0 0 0 0
03-04-2019 17.9 (15:40) 7.3 (00:00) 12.6 11.67 (16:00) 8.06 (15:50) 0 0 0 0 0
02-04-2019 20.5 (17:10) 7.1 (00:00) 13.8 8.33 (18:00) 4.17 (02:00) 0 0 0 0 0
01-04-2019 18.4 (15:50) 8.9 (00:00) 13.6 9.72 (04:30) 7.5 (04:30) 1.2 0 0 0 1.2
31-03-2019 19.7 (15:00) 8.2 (00:00) 14 7.22 (15:40) 5.56 (16:50) 1 0 0 1 0
30-03-2019 20.2 (17:50) 6.3 (00:00) 13.3 13.33 (01:20) 10 (01:30) 0 0 0 0 0
29-03-2019 20.1 (16:50) 4.7 (00:00) 12.4 11.94 (01:30) 8.89 (01:30) 0 0 0 0 0
28-03-2019 18.2 (16:10) 4.3 (00:00) 11.3 11.94 (15:50) 7.78 (12:30) 0 0 0 0 0
27-03-2019 19.2 (16:10) 5.9 (00:00) 12.6 13.33 (14:20) 8.33 (13:30) 0 0 0 0 0
26-03-2019 23 (17:20) 6.9 (00:00) 15 10.28 (13:20) 6.39 (12:10) 0 0 0 0 0
25-03-2019 21.3 (16:00) 7.9 (00:00) 14.6 11.39 (15:20) 6.94 (15:30) 0 0 0 0 0
24-03-2019 20 (16:20) 5.2 (00:00) 12.6 12.5 (13:40) 7.78 (13:40) 0 0 0 0 0
23-03-2019 19.2 (16:10) 5.2 (00:00) 12.2 14.44 (12:10) 9.72 (12:10) 0 0 0 0 0
22-03-2019 17.5 (15:20) 4.5 (00:00) 11 11.94 (16:00) 5.83 (02:30) 0 0 0 0 0
21-03-2019 16.2 (15:20) 5.2 (00:00) 10.7 10.28 (13:00) 6.94 (13:10) 0 0 0 0 0

Gráficas

Temp. máximas Temp. mínimas Temp. medias Precipitaciones Rachas de viento máximas Velocidades máximas media en intervalos de 10 minutos

Datos horarios

Fecha y hora oficial Temperatura (ºC) Velocidad del viento (km/h) Dirección del viento Racha (km/h) Dirección de racha Precipitación (mm) Presión (hPa) Tendencia (hPa) Humedad (%)
2019-04-19 23:00:00 9.3 8 Este 15 Nordeste 0.2 940.8 1.9 92
2019-04-19 22:00:00 9.4 11 Este 26 Nordeste 2.4 940.7 2.2 94
2019-04-19 21:00:00 9.3 8 Sudoeste 23 Sudoeste 0 939.6 1.8 91
2019-04-19 20:00:00 9.6 17 Sudoeste 34 Sur 0 938.9 1.2 88
2019-04-19 19:00:00 9.9 15 Sur 44 Este 8.6 938.5 0.6 86
2019-04-19 18:00:00 12.3 22 Oeste 33 Oeste 0.2 937.8 -0.4 81
2019-04-19 17:00:00 17.2 10 Sudoeste 19 Oeste 0 937.7 -1.1 51
2019-04-19 16:00:00 16.1 9 Sudeste 20 Este 0 937.9 -1.5 51
2019-04-19 15:00:00 15.5 7 Nordeste 22 Este 0 938.2 -1.2 58
2019-04-19 14:00:00 14.8 13 Este 23 Este 0 938.8 -0.2 62
2019-04-19 13:00:00 13.8 7 Este 15 Este 0 939.4 0.9 73
2019-04-19 12:00:00 11.6 5 Este 9 Este 0 939.4 0.9 79
2019-04-19 11:00:00 11.4 4 Noroeste 12 Oeste 0 939 0.8 82
2019-04-19 10:00:00 9.3 8 Sudoeste 15 Sudoeste 0 938.5 0.8 92
2019-04-19 09:00:00 8.3 10 Sudoeste 15 Sudoeste 0 938.5 0.8 94
2019-04-19 08:00:00 8.2 12 Sudoeste 16 Sudoeste 1.4 938.2 0.4 94
2019-04-19 07:00:00 8.3 11 Sudoeste 17 Sudoeste 0.2 937.7 -0.3 93
2019-04-19 06:00:00 8.4 9 Sudoeste 14 Sudoeste 0 937.7 -0.2 93
2019-04-19 05:00:00 8.4 6 Sudoeste 18 Sudoeste 0 937.8 -0.4 93
2019-04-19 04:00:00 8.3 11 Sudoeste 18 Oeste 0 938 -0.4 94
2019-04-19 03:00:00 8.2 12 Oeste 19 Sudoeste 0 937.9 -0.6 93
2019-04-19 02:00:00 8.1 11 Sudoeste 17 Sudoeste 0 938.2 -0.5 90
2019-04-19 01:00:00 8.2 11 Sudoeste 25 Oeste 0 938.4 0.4 90
2019-04-19 00:00:00 8.3 17 Oeste 29 Oeste 0 938.5 1.3 89
2019-04-18 23:00:00 9.1 19 Oeste 27 Oeste 0 938.7 1.4 83
2019-04-18 22:00:00 8.9 13 Oeste 22 Oeste 0 938 1.1 78
2019-04-18 21:00:00 9.3 13 Sudoeste 26 Sudoeste 0 937.2 0.6 77
2019-04-18 20:00:00 9.6 19 Sudoeste 32 Sudoeste 0 937.3 0.8 76
2019-04-18 19:00:00 10.4 23 Sudoeste 36 Sudoeste 0 936.9 0 75
2019-04-18 18:00:00 12.7 17 Sudoeste 23 Sudoeste 0 936.6 0 68
2019-04-18 17:00:00 11.5 10 Este 26 Norte 0 936.5 -0.4 77
2019-04-18 16:00:00 12.3 10 Este 24 Noroeste 0 936.9 -0.6 69
2019-04-18 15:00:00 15.4 14 Oeste 24 Oeste 0 936.6 -1 54
2019-04-18 14:00:00 14.6 14 Oeste 22 Oeste 0 936.9 -0.6 66
2019-04-18 13:00:00 12.8 11 Oeste 17 Oeste 0 937.5 0.1 74
2019-04-18 12:00:00 11.8 9 Oeste 18 Sudoeste 0 937.6 0.3 79
2019-04-18 11:00:00 10.3 12 Sudoeste 27 Sudoeste 0.2 937.5 0.7 85
2019-04-18 10:00:00 10.6 16 Sudoeste 22 Sudoeste 0.2 937.4 1 86
2019-04-18 09:00:00 10.2 8 Sudoeste 17 Sudoeste 0 937.3 0.8 81
2019-04-18 08:00:00 9.7 10 Sudoeste 16 Sudoeste 0 936.8 0.2 79
2019-04-18 07:00:00 9.2 10 Sudoeste 20 Sudoeste 0 936.4 -0.2 84
2019-04-18 06:00:00 9.4 14 Sudoeste 28 Sur 0 936.5 -1 87
2019-04-18 05:00:00 8.9 19 Sur 25 Sur 0 936.6 -1.6 88
2019-04-18 04:00:00 9 14 Sur 25 Sur 0 936.6 -1.3 86
2019-04-18 03:00:00 8.9 15 Sur 21 Sur 0 937.5 -0.1 88
2019-04-18 02:00:00 9.5 12 Sudoeste 33 Sur 0 938.2 0.9 87
2019-04-18 01:00:00 9.2 21 Sur 35 Sur 0 937.9 1.3 86
2019-04-18 00:00:00 9.4 24 Sur 31 Sudoeste 0 937.6 1.5 86
2019-04-17 23:00:00 9.9 12 Sudoeste 30 Sur 0 937.3 1.3 87
2019-04-17 22:00:00 10.6 22 Sur 34 Sudoeste 0.2 936.6 0.8 80
2019-04-17 21:00:00 11.3 13 Sudoeste 29 Sudoeste 0 936.1 1 74
2019-04-17 20:00:00 12.2 15 Sudoeste 38 Oeste 0 936 1.6 65
2019-04-17 19:00:00 12.9 23 Sudoeste 45 Sudoeste 0 935.8 1 73
2019-04-17 18:00:00 15.5 26 Sur 45 Sur 0 935.1 0.2 65
2019-04-17 17:00:00 15.9 32 Sur 49 Sudoeste 0 934.4 -0.6 61
2019-04-17 16:00:00 16.9 25 Sur 53 Sudoeste 0 934.8 -0.5 60
2019-04-17 15:00:00 17.9 28 Sudoeste 52 Sur 0 934.9 -0.9 54
2019-04-17 14:00:00 18.9 34 Sur 49 Sur 0 935 -0.3 47
2019-04-17 13:00:00 18.2 29 Sur 47 Sur 0 935.3 0.1 47
2019-04-17 12:00:00 16.2 23 Sur 35 Sur 0 935.8 0.9 50
2019-04-17 11:00:00 16.4 19 Sur 39 Sudeste 0 935.3 0.6 45
2019-04-17 10:00:00 14 18 Sudeste 35 Sudeste 0 935.2 0.8 51
2019-04-17 09:00:00 12.4 25 Sudeste 41 Sudeste 0 934.9 -0.1 57
2019-04-17 08:00:00 12.2 30 Sudeste 50 Sudeste 0 934.7 -0.5 58
2019-04-17 07:00:00 11.6 27 Sudeste 42 Sudeste 0 934.4 -1.5 60
2019-04-17 06:00:00 11.5 22 Sur 37 Sur 0 935 -1.8 62
2019-04-17 05:00:00 11.6 21 Sudeste 49 Sur 0 935.2 -2.1 66
2019-04-17 04:00:00 12.7 28 Sur 43 Sudeste 0 935.9 -1.6 60
2019-04-17 03:00:00 13.7 27 Sur 40 Sudeste 0 936.8 -1.2 54
2019-04-17 02:00:00 14.7 20 Sudeste 37 Sudeste 0 937.3 -0.6 49
2019-04-17 01:00:00 14.9 18 Sur 33 Sur 0 937.5 -0.1 52
2019-04-17 00:00:00 15.6 15 Sur 26 Sur 0 938 0.5 50
2019-04-16 23:00:00 16 11 Sur 35 Sudeste 0 937.9 0.2 43
2019-04-16 22:00:00 17 19 Sudeste 34 Sudeste 0 937.6 -0.3 42
2019-04-16 21:00:00 18 22 Sur 37 Sudeste 0 937.5 -0.7 38
2019-04-16 20:00:00 19.3 15 Sur 33 Sur 0 937.7 -1.1 32
2019-04-16 19:00:00 21.3 19 Sur 33 Sur 0 937.9 -1.6 26
2019-04-16 18:00:00 22 20 Sudeste 35 Sudeste 0 938.2 -2.3 27
2019-04-16 17:00:00 23.1 13 Sur 28 Sur 0 938.8 -2.5 27
2019-04-16 16:00:00 22.3 18 Sur 33 Sur 0 939.5 -2.5 27
2019-04-16 15:00:00 21.4 18 Sudeste 29 Sur 0 940.5 -1.7 32
2019-04-16 14:00:00 20.5 10 Sur 28 Sudeste 0 941.3 -1.1 37
2019-04-16 13:00:00 19.3 15 Sudeste 30 Sur 0 942 -0.5 41
2019-04-16 12:00:00 17.7 15 Sudeste 29 Sudeste 0 942.2 0 46
2019-04-16 11:00:00 16.8 12 Sur 21 Sudeste 0 942.4 0.5 50
2019-04-16 10:00:00 13.7 15 Este 20 Este 0 942.5 0.4 69
2019-04-16 09:00:00 11.3 11 Este 15 Este 0 942.2 -0.3 81
2019-04-16 08:00:00 7.2 11 Sudeste 13 Sudeste 0 941.9 -0.8 90
2019-04-16 07:00:00 7.1 6 Este 10 Sudeste 0 942.1 -0.9 90
2019-04-16 06:00:00 7.8 4 Sudeste 11 Sudeste 0 942.5 -0.9 90
2019-04-16 05:00:00 8.2 3 Sudeste 8 Noroeste 0 942.7 -0.6 88
2019-04-16 04:00:00 8.7 4 Sudoeste 13 Oeste 0 943 -0.1 86
2019-04-16 03:00:00 9.2 10 Oeste 14 Oeste 0 943.4 0.6 83
2019-04-16 02:00:00 9.8 9 Sudoeste 16 Sudoeste 0 943.3 0.8 79
2019-04-16 01:00:00 10.5 9 Oeste 14 Sudoeste 0 943.1 1.4 76
2019-04-16 00:00:00 10.8 11 Sudoeste 22 Oeste 0 942.8 1.9 76
2019-04-15 23:00:00 11.7 14 Oeste 18 Oeste 0 942.5 2.1 74
2019-04-15 22:00:00 12.5 12 Oeste 15 Oeste 0 941.7 1.7 70
2019-04-15 21:00:00 14.2 14 Noroeste 31 Oeste 0 940.9 1.5 63
2019-04-15 20:00:00 16 26 Noroeste 41 Oeste 0 940.4 1.5 60
2019-04-15 19:00:00 17.3 24 Noroeste 44 Oeste 0 940 1.6 59
2019-04-15 18:00:00 19.3 27 Oeste 46 Oeste 0 939.4 1.1 51
2019-04-15 17:00:00 20.1 30 Oeste 44 Oeste 0 938.9 0.2 44
2019-04-15 16:00:00 21.2 28 Oeste 40 Noroeste 0 938.4 -0.4 40
2019-04-15 15:00:00 21.3 27 Oeste 39 Noroeste 0 938.3 -0.5 40
2019-04-15 14:00:00 21.6 20 Oeste 32 Oeste 0 938.7 0.2 42
2019-04-15 13:00:00 20.8 15 Oeste 26 Oeste 0 938.8 0.2 46
2019-04-15 12:00:00 20.3 12 Noroeste 23 Sudoeste 0 938.8 0.4 43
2019-04-15 11:00:00 18.2 14 Sudoeste 26 Sudoeste 0 938.5 1.2 55
2019-04-15 10:00:00 16.5 11 Sudoeste 20 Sur 0 938.6 1.9 68
2019-04-15 09:00:00 15.2 13 Sudoeste 33 Sur 0 938.4 1.2 71
2019-04-15 08:00:00 16.4 22 Sur 39 Sudeste 0 937.3 -0.8 64
2019-04-15 07:00:00 16.4 24 Sur 36 Sur 0 936.7 -1.6 64
2019-04-15 06:00:00 16.8 18 Sur 31 Sudeste 0 937.2 -2.1 62
2019-04-15 05:00:00 16.8 14 Sur 28 Sur 0 938.1 -1.9 62
2019-04-15 04:00:00 17.1 17 Sur 24 Sur 0 938.3 -2.2 60
2019-04-15 03:00:00 16.9 12 Sur 18 Sur 0 939.3 -1.4 61
2019-04-15 02:00:00 17.3 14 Sur 22 Sudoeste 0 940 -0.8 63
2019-04-15 01:00:00 17.6 10 Sudoeste 21 Sur 0 940.5 -0.2 63
2019-04-15 00:00:00 18 18 Sur 28 Sur 0 940.7 0.2 61
2019-04-14 23:00:00 18.6 20 Sur 27 Sur 0 940.8 0.3 59
2019-04-14 22:00:00 19.4 19 Sur 25 Sur 0 940.7 0 56
2019-04-14 21:00:00 20.1 13 Sur 16 Sur 0 940.5 -0.3 55
2019-04-14 20:00:00 22.1 4 Sudeste 12 Noroeste 0 940.5 -0.8 47
2019-04-14 19:00:00 22.6 6 Norte 13 Noroeste 0 940.7 -1.2 46
2019-04-14 18:00:00 22.5 5 Nordeste 14 Sudoeste 0 940.8 -1.6 45
2019-04-14 17:00:00 23.1 5 Oeste 18 Noroeste 0 941.3 -1.6 43
2019-04-14 16:00:00 23.6 4 Noroeste 21 Oeste 0 941.9 -1.4 42
2019-04-14 15:00:00 22.5 8 Noroeste 18 Sudoeste 0 942.4 -1.3 46
2019-04-14 14:00:00 21.9 10 Sudoeste 19 Oeste 0 942.9 -0.9 48
2019-04-14 13:00:00 20.1 5 Sur 13 Sudoeste 0 943.3 -0.4 59
2019-04-14 12:00:00 17.4 6 Este 11 Este 0 943.7 0.3 72
2019-04-14 11:00:00 14.1 3 Sudeste 9 Noroeste 0 943.8 0.6 85
2019-04-14 10:00:00 12.4 6 Noroeste 13 Noroeste 0 943.7 0.7 92
2019-04-14 09:00:00 11.9 2 Norte 10 Noroeste 0 943.4 0.1 94
2019-04-14 08:00:00 11.7 5 Noroeste 11 Noroeste 0 943.2 -0.5 94
2019-04-14 07:00:00 11.5 8 Oeste 13 Oeste 0 943 -0.9 94
2019-04-14 06:00:00 10.8 4 Oeste 12 Noroeste 0 943.3 -0.9 93
2019-04-14 05:00:00 11 7 Noroeste 10 Noroeste 0 943.7 -0.8 91
2019-04-14 04:00:00 11.5 5 Noroeste 13 Noroeste 0 943.9 -0.9 88
2019-04-14 03:00:00 11.7 8 Oeste 13 Oeste 0 944.2 -0.5 86
2019-04-14 02:00:00 11.9 6 Oeste 13 Oeste 0 944.5 -0.3 80
2019-04-14 01:00:00 13.1 10 Oeste 20 Noroeste 0 944.8 0.5 73
2019-04-14 00:00:00 13 9 Oeste 13 Oeste 0 944.7 1 57
2019-04-13 23:00:00 13.8 9 Oeste 14 Oeste 0 944.8 1.4 51
2019-04-13 22:00:00 14.2 8 Oeste 16 Oeste 0 944.3 1.2 51
2019-04-13 21:00:00 16 12 Noroeste 21 Oeste 0 943.7 0.7 47
2019-04-13 20:00:00 19.4 14 Noroeste 24 Noroeste 0 943.4 0.3 34
2019-04-13 19:00:00 21.2 14 Noroeste 25 Noroeste 0 943.1 -0.4 33
2019-04-13 18:00:00 20.9 12 Noroeste 29 Noroeste 0 943 -0.7 31
2019-04-13 17:00:00 22.2 12 Oeste 27 Noroeste 0 943.1 -1 26
2019-04-13 16:00:00 21.8 13 Oeste 25 Oeste 0 943.5 -0.9 27
2019-04-13 15:00:00 20.7 11 Noroeste 22 Oeste 0 943.7 -0.9 29
2019-04-13 14:00:00 19.9 5 Sur 18 Noroeste 0 944.1 -0.4 32
2019-04-13 13:00:00 19.2 4 Noroeste 15 Norte 0 944.4 0.1 34
2019-04-13 12:00:00 18.3 5 Oeste 13 Noroeste 0 944.6 0.5 40
2019-04-13 11:00:00 16.3 4 Norte 10 Noroeste 0 944.5 0.9 51
2019-04-13 10:00:00 13.8 4 Noroeste 8 Noroeste 0 944.3 0.9 63
2019-04-13 09:00:00 12.1 2 Oeste 5 Sudoeste 0 944.1 1 66
2019-04-13 08:00:00 9.6 3 Oeste 6 Oeste 0 943.6 0.7 72
2019-04-13 07:00:00 9 5 Oeste 12 Oeste 0 943.4 0.3 72
2019-04-13 06:00:00 10 6 Oeste 10 Noroeste 0 943.1 -0.1 64
2019-04-13 05:00:00 9.6 8 Sudoeste 12 Noroeste 0 942.9 -0.7 59
2019-04-13 04:00:00 10.5 8 Noroeste 11 Noroeste 0 943.1 -0.3 54
2019-04-13 03:00:00 10.9 5 Noroeste 11 Noroeste 0 943.2 -0.2 51
2019-04-13 02:00:00 11.3 8 Noroeste 11 Noroeste 0 943.6 0.5 46
2019-04-13 01:00:00 11.4 4 Oeste 10 Noroeste 0 943.4 0.9 41
2019-04-13 00:00:00 11.4 5 Noroeste 8 Noroeste 0 943.4 1.6 43
2019-04-12 23:00:00 11.6 2 Oeste 8 Noroeste 0 943.1 1.5 43
2019-04-12 22:00:00 12.9 5 Noroeste 13 Noroeste 0 942.5 0.8 43
2019-04-12 21:00:00 15.3 6 Noroeste 14 Norte 0 941.8 0.1 33
2019-04-12 20:00:00 17.4 9 Norte 21 Noroeste 0 941.6 -0.3 27
2019-04-12 19:00:00 18.8 9 Noroeste 22 Noroeste 0 941.7 -0.6 26
2019-04-12 18:00:00 19.3 13 Noroeste 23 Noroeste 0 941.7 -1.1 28
2019-04-12 17:00:00 19.8 10 Noroeste 24 Noroeste 0 941.9 -1.2 28
2019-04-12 16:00:00 18.6 6 Norte 22 Oeste 0 942.3 -1.1 24
2019-04-12 15:00:00 18.6 8 Noroeste 23 Noroeste 0 942.8 -0.6 28
2019-04-12 14:00:00 18 4 Oeste 20 Noroeste 0 943.1 -0.1 32
2019-04-12 13:00:00 16.8 8 Norte 20 Noroeste 0 943.4 0.4 32
2019-04-12 12:00:00 16.1 8 Norte 16 Norte 0 943.4 0.4 37
2019-04-12 11:00:00 14.9 3 Nordeste 8 Este 0 943.2 0.4 50
2019-04-12 10:00:00 12.2 4 Nordeste 7 Este 0 943 0.6 55
2019-04-12 09:00:00 9.7 0 Calma 4 Oeste 0 943 0.6 70
2019-04-12 08:00:00 6.8 0 Calma 6 Noroeste 0 942.8 0.4 78
2019-04-12 07:00:00 6.9 3 Oeste 7 Sudoeste 0 942.4 -0.1 80
2019-04-12 06:00:00 6.9 5 Oeste 9 Oeste 0 942.4 -0.2 80
2019-04-12 05:00:00 7.1 5 Oeste 10 Oeste 0 942.4 -0.7 78
2019-04-12 04:00:00 7.6 7 Oeste 11 Noroeste 0 942.5 -0.7 78
2019-04-12 03:00:00 8.2 7 Noroeste 13 Noroeste 0 942.6 -0.5 78
2019-04-12 02:00:00 8.8 8 Noroeste 16 Noroeste 0 943.1 0.2 76
2019-04-12 01:00:00 9.1 8 Noroeste 15 Noroeste 0 943.2 0.5 69
2019-04-12 00:00:00 10.4 3 Noroeste 6 Oeste 0 943.1 0.8 51
2019-04-11 23:00:00 10.6 2 Sur 6 Nordeste 0 942.9 0.8 51
2019-04-11 22:00:00 11.7 3 Norte 10 Noroeste 0 942.7 0.7 48
2019-04-11 21:00:00 13.3 6 Norte 17 Noroeste 0 942.3 0.2 44
2019-04-11 20:00:00 15.2 10 Noroeste 21 Norte 0 942.1 0 39
2019-04-11 19:00:00 16.5 9 Nordeste 23 Norte 0 942 -0.5 32
2019-04-11 18:00:00 17.2 13 Norte 25 Norte 0 942.1 -0.7 34
2019-04-11 17:00:00 17.6 12 Noroeste 26 Noroeste 0 942.1 -1 33
2019-04-11 16:00:00 16.6 13 Norte 28 Norte 0 942.5 -1.1 34
2019-04-11 15:00:00 16.3 9 Norte 21 Norte 0 942.8 -0.8 37
2019-04-11 14:00:00 15.5 8 Norte 20 Norte 0 943.1 -0.1 41
2019-04-11 13:00:00 14.8 8 Norte 17 Noroeste 0 943.6 0.5 54
2019-04-11 12:00:00 12.8 6 Norte 14 Norte 0 943.6 0.7 65
2019-04-11 11:00:00 11 5 Norte 14 Norte 0 943.2 0.7 75
2019-04-11 10:00:00 8.9 9 Noroeste 16 Noroeste 0 943.1 0.7 83
2019-04-11 09:00:00 6.5 4 Norte 9 Norte 0 942.9 0.7 88
2019-04-11 08:00:00 4.7 3 Oeste 14 Noroeste 0 942.5 0.1 92
2019-04-11 07:00:00 5.3 8 Noroeste 17 Noroeste 0 942.4 0 92
2019-04-11 06:00:00 5.6 9 Oeste 20 Oeste 0 942.2 -0.2 90
2019-04-11 05:00:00 5.7 13 Oeste 24 Oeste 0 942.4 -0.3 90
2019-04-11 04:00:00 6.4 16 Noroeste 22 Oeste 0 942.4 -0.1 89
2019-04-11 03:00:00 6.7 13 Noroeste 24 Noroeste 0 942.4 0 87
2019-04-11 02:00:00 7.6 15 Noroeste 26 Noroeste 0 942.7 0.4 83
2019-04-11 01:00:00 7.8 17 Noroeste 27 Noroeste 0 942.5 0.6 83
2019-04-11 00:00:00 8.8 21 Noroeste 35 Noroeste 0 942.4 1.4 78
2019-04-10 23:00:00 9.5 21 Noroeste 30 Noroeste 0 942.3 1.8 74
2019-04-10 22:00:00 10.4 22 Noroeste 33 Noroeste 0 941.9 1.5 68
2019-04-10 21:00:00 11.7 22 Noroeste 39 Noroeste 0 941 0.6 61
2019-04-10 20:00:00 13.2 22 Noroeste 40 Noroeste 0 940.5 -0.1 52
2019-04-10 19:00:00 15 26 Noroeste 42 Noroeste 0 940.4 -0.7 46
2019-04-10 18:00:00 14.5 23 Noroeste 41 Noroeste 0 940.4 -0.9 49
2019-04-10 17:00:00 14.8 22 Noroeste 45 Noroeste 0 940.6 -1.1 47
2019-04-10 16:00:00 14.4 26 Noroeste 42 Noroeste 0 941.1 -1 50
2019-04-10 15:00:00 14.3 23 Noroeste 42 Noroeste 0 941.3 -0.8 51
2019-04-10 14:00:00 12.9 19 Noroeste 41 Noroeste 0 941.7 -0.3 57
2019-04-10 13:00:00 12.4 22 Noroeste 36 Noroeste 0 942.1 0.1 59
2019-04-10 12:00:00 10.5 22 Noroeste 35 Noroeste 0 942.1 0.3 69
2019-04-10 11:00:00 9.1 24 Noroeste 37 Noroeste 0 942 0.8 76
2019-04-10 10:00:00 7.3 22 Noroeste 32 Noroeste 0 942 0.9 87
2019-04-10 09:00:00 6.3 14 Noroeste 24 Noroeste 0 941.8 0.8 93
2019-04-10 08:00:00 5.3 14 Oeste 26 Oeste 0 941.2 -0.2 95
2019-04-10 07:00:00 5.6 15 Oeste 26 Oeste 0 941.1 -0.5 94
2019-04-10 06:00:00 5.8 15 Oeste 23 Oeste 0 941 -1 94
2019-04-10 05:00:00 6.4 14 Oeste 25 Oeste 0 941.4 -0.8 92
2019-04-10 04:00:00 6.8 17 Oeste 27 Oeste 0 941.6 -0.6 90
2019-04-10 03:00:00 6.6 18 Oeste 31 Noroeste 0 942 0.1 91
2019-04-10 02:00:00 7.1 19 Noroeste 27 Noroeste 0 942.2 0.3 88
2019-04-10 01:00:00 6.9 17 Oeste 26 Oeste 0 942.2 1 88
2019-04-10 00:00:00 8 18 Noroeste 31 Noroeste 0 941.9 1.3 83
2019-04-09 23:00:00 8.6 18 Noroeste 35 Noroeste 0 941.9 1.7 80
2019-04-09 22:00:00 9.8 20 Noroeste 33 Noroeste 0 941.2 1 76
2019-04-09 21:00:00 10.2 18 Oeste 38 Oeste 0 940.6 0 80
2019-04-09 20:00:00 11.8 22 Oeste 38 Oeste 0 940.2 -0.2 73
2019-04-09 19:00:00 11.7 25 Oeste 43 Oeste 0.2 940.2 -0.3 72
2019-04-09 18:00:00 10.3 35 Oeste 49 Oeste 0 940.6 -0.2 79
2019-04-09 17:00:00 12.7 22 Oeste 46 Oeste 0 940.4 -0.8 69
2019-04-09 16:00:00 13.8 23 Oeste 39 Oeste 0 940.5 -0.9 59
2019-04-09 15:00:00 12.9 24 Oeste 43 Oeste 0 940.8 -1 68
2019-04-09 14:00:00 11.2 28 Oeste 41 Oeste 0.4 941.2 -0.3 78
2019-04-09 13:00:00 11.8 23 Oeste 45 Oeste 0 941.4 -0.2 70
2019-04-09 12:00:00 10.5 25 Oeste 36 Oeste 0.4 941.8 0.3 85
2019-04-09 11:00:00 8.1 23 Oeste 37 Oeste 1 941.5 0.7 88
2019-04-09 10:00:00 8.3 17 Oeste 28 Oeste 0 941.6 0.9 87
2019-04-09 09:00:00 7.1 13 Oeste 21 Oeste 0.4 941.5 0.9 93
2019-04-09 08:00:00 6.6 14 Oeste 25 Oeste 0 940.8 0.1 92
2019-04-09 07:00:00 7 19 Oeste 35 Oeste 0 940.7 -0.2 93
2019-04-09 06:00:00 6.5 18 Oeste 28 Sudoeste 0 940.6 -0.5 94
2019-04-09 05:00:00 6.5 23 Oeste 30 Oeste 0 940.7 -0.4 93
2019-04-09 04:00:00 6.3 19 Oeste 29 Oeste 0 940.9 0 92
2019-04-09 03:00:00 6.4 17 Oeste 24 Sudoeste 0 941.1 0.2 91
2019-04-09 02:00:00 6.3 14 Oeste 25 Oeste 0 941.1 0.3 89
2019-04-09 01:00:00 6.8 17 Oeste 24 Oeste 0 940.9 0.4 89
2019-04-09 00:00:00 7.4 11 Oeste 21 Oeste 0 940.9 1.5 88
2019-04-08 23:00:00 7.9 14 Oeste 22 Oeste 0 940.8 1.7 88
2019-04-08 22:00:00 8.9 12 Oeste 29 Noroeste 0 940.5 1.6 86
2019-04-08 21:00:00 10.8 14 Oeste 32 Oeste 0 939.4 0.7 63
2019-04-08 20:00:00 13.2 24 Oeste 36 Oeste 0 939.1 0.5 51
2019-04-08 19:00:00 13.3 25 Oeste 36 Oeste 0 938.9 -0.2 62
2019-04-08 18:00:00 13.9 22 Oeste 36 Oeste 0 938.7 -0.9 64
2019-04-08 17:00:00 14.9 26 Oeste 46 Oeste 0 938.6 -1.3 61
2019-04-08 16:00:00 15.7 25 Oeste 38 Oeste 0 939.1 -1.2 57
2019-04-08 15:00:00 14.4 22 Oeste 34 Oeste 0 939.6 -0.9 67
2019-04-08 14:00:00 13.6 17 Sudoeste 25 Oeste 0 939.9 0.1 75
2019-04-08 13:00:00 12.7 15 Oeste 27 Oeste 0 940.3 0.4 81
2019-04-08 12:00:00 10.5 17 Noroeste 24 Noroeste 0.4 940.5 0.9 90
2019-04-08 11:00:00 10.8 14 Oeste 19 Oeste 0 939.8 0.6 91
2019-04-08 10:00:00 9.8 10 Oeste 14 Oeste 3.2 939.9 1.1 95
2019-04-08 09:00:00 9.5 12 Sudoeste 19 Sudoeste 0.2 939.6 0.8 95
2019-04-08 08:00:00 9.3 14 Sudoeste 27 Sudoeste 0.4 939.2 0.2 94
2019-04-08 07:00:00 9.1 19 Sudoeste 27 Sudoeste 0.2 938.8 -0.2 93
2019-04-08 06:00:00 9 18 Sudoeste 31 Sudoeste 0.4 938.8 -0.6 90
2019-04-08 05:00:00 9.1 20 Sudoeste 31 Sudoeste 0.4 939 -1 90
2019-04-08 04:00:00 9.5 23 Sudoeste 39 Sudoeste 0 939 -1.2 90
2019-04-08 03:00:00 9.6 18 Sudoeste 30 Sudoeste 0 939.4 -0.7 92
2019-04-08 02:00:00 9.9 13 Oeste 32 Sudoeste 0 940 0.1 94
2019-04-08 01:00:00 9.9 20 Sudoeste 30 Sudoeste 0.4 940.2 0.8 93
2019-04-08 00:00:00 10.3 17 Sudoeste 28 Sudoeste 0 940.1 1 92
2019-04-07 23:00:00 10.4 17 Sudoeste 32 Oeste 0 939.9 1.4 93
2019-04-07 22:00:00 10.6 16 Oeste 28 Oeste 0 939.4 1.1 93
2019-04-07 21:00:00 10.8 19 Sudoeste 32 Oeste 1 939.1 1.1 93
2019-04-07 20:00:00 10.7 21 Sur 30 Sur 0.4 938.5 0.4 93
2019-04-07 19:00:00 10.6 22 Sur 33 Sur 0.2 938.3 -0.4 92
2019-04-07 18:00:00 11.2 27 Sudoeste 37 Sudoeste 0 938 -0.9 90
2019-04-07 17:00:00 10.8 22 Sur 35 Sur 0.2 938.1 -1 91
2019-04-07 16:00:00 10.8 19 Sudoeste 31 Sudoeste 0 938.7 -0.2 92
2019-04-07 15:00:00 10.5 17 Sudoeste 29 Sudoeste 0.4 938.9 0 89
2019-04-07 14:00:00 10.7 18 Oeste 28 Sudoeste 0.2 939.1 0.8 82
2019-04-07 13:00:00 10.2 13 Oeste 21 Oeste 0 938.9 1.2 80
2019-04-07 12:00:00 9.1 14 Oeste 23 Oeste 0 938.9 1.4 89
2019-04-07 11:00:00 7.3 10 Oeste 17 Sudoeste 0.2 938.3 1.7 92
2019-04-07 10:00:00 6.8 11 Oeste 29 Oeste 0.2 937.7 1.5 92
2019-04-07 09:00:00 6.6 18 Oeste 27 Oeste 0 937.5 1.6 87
2019-04-07 08:00:00 6.4 16 Oeste 35 Oeste 0 936.6 0.7 91
2019-04-07 07:00:00 6.7 19 Oeste 31 Oeste 0 936.2 0.5 92
2019-04-07 06:00:00 6.6 18 Oeste 36 Oeste 0 935.9 0.4 92
2019-04-07 05:00:00 6.6 23 Oeste 36 Oeste 0 935.9 0.2 91
2019-04-07 04:00:00 6.4 23 Oeste 38 Sudoeste 0 935.7 0.2 91
2019-04-07 03:00:00 6.2 21 Oeste 36 Oeste 0 935.5 0.2 93
2019-04-07 02:00:00 6.3 24 Oeste 38 Oeste 0 935.7 0.6 91
2019-04-07 01:00:00 6.2 26 Oeste 41 Oeste 0 935.5 1.1 92
2019-04-07 00:00:00 5.5 19 Oeste 32 Oeste 0 935.3 1.4 90
2019-04-06 23:00:00 6 24 Oeste 35 Oeste 0 935.1 1.8 88
2019-04-06 22:00:00 6.3 26 Oeste 39 Oeste 0 934.4 1.7 87
2019-04-06 21:00:00 6.6 26 Oeste 42 Oeste 0 933.9 1.3 87
2019-04-06 20:00:00 8.3 27 Oeste 41 Oeste 0 933.3 1 75
2019-04-06 19:00:00 8.9 26 Oeste 41 Oeste 0 932.7 1 79
2019-04-06 18:00:00 6.8 22 Noroeste 58 Noroeste 2 932.6 0.5 94
2019-04-06 17:00:00 8 23 Noroeste 49 Oeste 0.6 932.3 0.1 86
2019-04-06 16:00:00 13.5 32 Oeste 51 Oeste 0 931.7 -0.9 45
2019-04-06 15:00:00 11.2 31 Oeste 46 Oeste 0 932.1 -0.7 58
2019-04-06 14:00:00 10.4 27 Oeste 45 Oeste 0 932.2 -0.5 67
2019-04-06 13:00:00 8.5 28 Oeste 45 Oeste 0 932.6 0.5 74
2019-04-06 12:00:00 7.3 22 Sudoeste 38 Oeste 0.2 932.8 0.6 85
2019-04-06 11:00:00 6.4 27 Oeste 38 Oeste 0.2 932.7 1.2 83
2019-04-06 10:00:00 6.3 17 Sudoeste 26 Oeste 0 932.1 0.8 90
2019-04-06 09:00:00 5.3 12 Oeste 22 Oeste 0 932.2 1 92
2019-04-06 08:00:00 5.1 13 Oeste 26 Oeste 0 931.5 0.5 93
2019-04-06 07:00:00 5.4 17 Sudoeste 31 Oeste 0 931.3 0.3 92
2019-04-06 06:00:00 5.6 17 Oeste 36 Oeste 0 931.2 0 92
2019-04-06 05:00:00 5.6 21 Oeste 37 Oeste 0 931 -0.4 92
2019-04-06 04:00:00 5.4 24 Oeste 35 Oeste 0 931 -0.4 93
2019-04-06 03:00:00 5.3 16 Oeste 31 Oeste 0 931.2 0.2 94
2019-04-06 02:00:00 4.6 20 Oeste 32 Oeste 0 931.4 0.4 94
2019-04-06 01:00:00 3.9 18 Oeste 27 Oeste 0 931.4 1.4 92
2019-04-06 00:00:00 4.5 21 Oeste 33 Oeste 0.4 931 2 90
2019-04-05 23:00:00 5.2 21 Oeste 33 Oeste 0.2 931 2.4 91
2019-04-05 22:00:00 5.4 21 Oeste 35 Oeste 0 930 2.3 90
2019-04-05 21:00:00 4.9 23 Oeste 50 Oeste 0.4 929 2 89
2019-04-05 20:00:00 6.3 22 Oeste 56 Noroeste 0.2 928.6 1.2 83
2019-04-05 19:00:00 9.2 31 Oeste 51 Oeste 0 927.7 0.4 62
2019-04-05 18:00:00 10.5 29 Oeste 46 Oeste 0 927 -0.4 51
2019-04-05 17:00:00 8.9 24 Oeste 51 Oeste 0 927.4 -0.1 65
2019-04-05 16:00:00 8.9 28 Oeste 44 Oeste 0 927.3 0.1 57
2019-04-05 15:00:00 8 29 Noroeste 45 Oeste 0 927.4 0.2 64
2019-04-05 14:00:00 8.6 29 Oeste 43 Noroeste 0 927.5 1.2 67
2019-04-05 13:00:00 7.2 32 Oeste 46 Oeste 0 927.2 1.8 75
2019-04-05 12:00:00 6.7 24 Oeste 41 Oeste 0 927.2 1.8 84
2019-04-05 11:00:00 6.4 24 Oeste 39 Oeste 2.2 926.3 0.6 92
2019-04-05 10:00:00 7.1 13 Sudoeste 21 Sudoeste 0 925.4 0 92
2019-04-05 09:00:00 5.7 9 Sudoeste 15 Sudoeste 0.2 925.4 -0.5 92
2019-04-05 08:00:00 5.7 12 Oeste 23 Oeste 1.4 925.7 -1 92
2019-04-05 07:00:00 6.4 14 Sur 28 Sur 0.6 925.4 -1.5 93
2019-04-05 06:00:00 6.2 22 Sur 31 Sudoeste 1.2 925.9 -1.7 92
2019-04-05 05:00:00 6.2 19 Sudoeste 39 Sudoeste 0.4 926.7 -1.6 89
2019-04-05 04:00:00 6.1 28 Sudoeste 43 Sudoeste 0 926.9 -1.6 79
2019-04-05 03:00:00 6.3 21 Sudoeste 31 Sudoeste 0 927.6 -0.9 74
2019-04-05 02:00:00 7.3 21 Oeste 30 Sudoeste 0 928.3 -0.1 70
2019-04-05 01:00:00 7.5 21 Oeste 39 Oeste 0 928.5 0.6 68
2019-04-05 00:00:00 8 22 Oeste 36 Oeste 0 928.5 0.7 65
2019-04-04 23:00:00 8.9 19 Oeste 30 Oeste 0 928.4 0.6 50
2019-04-04 22:00:00 10.4 14 Oeste 28 Oeste 0 927.9 0 39
2019-04-04 21:00:00 10.9 15 Oeste 32 Oeste 0 927.8 -0.3 32
2019-04-04 20:00:00 13.1 20 Oeste 32 Oeste 0 927.8 -0.7 28
2019-04-04 19:00:00 15 19 Oeste 38 Noroeste 0 927.9 -1 25
2019-04-04 18:00:00 15.4 16 Noroeste 33 Oeste 0 928.1 -1.6 23
2019-04-04 17:00:00 16 12 Oeste 27 Noroeste 0 928.5 -1.7 24
2019-04-04 16:00:00 15.7 15 Noroeste 24 Noroeste 0 928.9 -1.7 26
2019-04-04 15:00:00 14.8 13 Oeste 21 Oeste 0 929.7 -1.1 25
2019-04-04 14:00:00 13.4 6 Noroeste 17 Norte 0 930.2 -0.2 32
2019-04-04 13:00:00 12.4 6 Noroeste 15 Nordeste 0 930.6 0.3 38
2019-04-04 12:00:00 9.7 8 Nordeste 22 Norte 0 930.8 0.9 43
2019-04-04 11:00:00 7.4 15 Norte 26 Norte 0 930.4 1.1 52
2019-04-04 10:00:00 5.6 17 Norte 29 Norte 0 930.3 1 56
2019-04-04 09:00:00 4.2 13 Norte 24 Noroeste 0 929.9 0.6 63
2019-04-04 08:00:00 2.3 16 Noroeste 24 Noroeste 0 929.3 -0.2 72
2019-04-04 07:00:00 2.9 14 Noroeste 24 Noroeste 0 929.3 -0.5 71
2019-04-04 06:00:00 3.4 5 Oeste 21 Noroeste 0 929.3 -0.9 72
2019-04-04 05:00:00 4.2 12 Norte 23 Noroeste 0 929.5 -1 71
2019-04-04 04:00:00 4.5 9 Noroeste 19 Noroeste 0 929.8 -1 71
2019-04-04 03:00:00 5.1 10 Noroeste 20 Norte 0 930.2 -0.7 69
2019-04-04 02:00:00 5.9 12 Noroeste 23 Noroeste 0 930.5 -0.5 71
2019-04-04 01:00:00 6.9 15 Noroeste 25 Noroeste 0 930.8 0.1 70
2019-04-04 00:00:00 8 17 Noroeste 26 Noroeste 0 930.9 0.4 65
2019-04-03 23:00:00 9 14 Noroeste 32 Noroeste 0 931 0.5 62
2019-04-03 22:00:00 10.5 14 Noroeste 23 Noroeste 0 930.7 0.1 58
2019-04-03 21:00:00 11.7 18 Noroeste 28 Noroeste 0 930.5 -0.4 54
2019-04-03 20:00:00 13.6 21 Noroeste 36 Noroeste 0 930.5 -1 46
2019-04-03 19:00:00 15.3 20 Noroeste 35 Noroeste 0 930.6 -1.5 43
2019-04-03 18:00:00 15.8 21 Noroeste 35 Noroeste 0 930.9 -1.5 45
2019-04-03 17:00:00 16.8 21 Noroeste 41 Noroeste 0 931.5 -1.6 43
2019-04-03 16:00:00 17.2 24 Noroeste 42 Noroeste 0 932.1 -1.8 38
2019-04-03 15:00:00 17.6 23 Oeste 35 Oeste 0 932.4 -1.9 33
2019-04-03 14:00:00 16.8 19 Oeste 33 Oeste 0 933.1 -1.4 38
2019-04-03 13:00:00 16.1 15 Oeste 24 Noroeste 0 933.9 -1 44
2019-04-03 12:00:00 14.7 14 Oeste 21 Oeste 0 934.3 -0.8 44
2019-04-03 11:00:00 13 12 Noroeste 22 Noroeste 0 934.5 -0.9 51
2019-04-03 10:00:00 10.4 9 Oeste 14 Sudoeste 0 934.9 -1 75
2019-04-03 09:00:00 8.3 10 Sudoeste 15 Sudoeste 0 935.1 -1.2 83
2019-04-03 08:00:00 7.4 12 Sudoeste 15 Sudoeste 0 935.4 -1.5 87
2019-04-03 07:00:00 8.2 11 Sudoeste 17 Sudoeste 0 935.9 -1.6 86
2019-04-03 06:00:00 8.8 10 Sudoeste 14 Sudoeste 0 936.3 -1.8 80
2019-04-03 05:00:00 9.1 7 Oeste 14 Oeste 0 936.9 -1.9 81
2019-04-03 04:00:00 9.4 8 Sudoeste 12 Oeste 0 937.5 -1.7 81
2019-04-03 03:00:00 9.4 6 Oeste 15 Oeste 0 938.1 -1.2 80
2019-04-03 02:00:00 10.5 9 Oeste 13 Oeste 0 938.8 -0.5 75
2019-04-03 01:00:00 10.9 10 Oeste 13 Oeste 0 939.2 0.1 73
2019-04-03 00:00:00 11.3 9 Oeste 12 Oeste 0 939.3 0.4 72
2019-04-02 23:00:00 11.8 9 Oeste 12 Noroeste 0 939.3 0.4 70
2019-04-02 22:00:00 12.7 4 Oeste 10 Oeste 0 939.1 0.2 62
2019-04-02 21:00:00 14.7 6 Oeste 19 Noroeste 0 938.9 -0.1 56
2019-04-02 20:00:00 17.1 10 Noroeste 23 Noroeste 0 938.9 -0.4 45
2019-04-02 19:00:00 18.5 13 Noroeste 24 Noroeste 0 938.9 -1 40
2019-04-02 18:00:00 18.5 10 Noroeste 30 Norte 0 939 -1.5 41
2019-04-02 17:00:00 19.7 9 Noroeste 23 Norte 0 939.3 -1.8 37
2019-04-02 16:00:00 18.8 8 Norte 17 Norte 0 939.9 -1.6 42
2019-04-02 15:00:00 18.1 6 Noroeste 20 Norte 0 940.5 -1.3 44
2019-04-02 14:00:00 16.8 6 Norte 17 Noroeste 0 941.1 -0.3 51
2019-04-02 13:00:00 15.5 6 Noroeste 15 Noroeste 0 941.5 0.4 57
2019-04-02 12:00:00 14.5 6 Nordeste 14 Norte 0 941.8 0.9 61
2019-04-02 11:00:00 13.6 4 Norte 9 Noroeste 0 941.4 1.2 73
2019-04-02 10:00:00 11.9 3 Norte 6 Noroeste 0 941.1 1 79
2019-04-02 09:00:00 8.5 5 Sudoeste 8 Oeste 0 940.9 0.8 91
2019-04-02 08:00:00 7.7 3 Sudoeste 10 Oeste 0 940.2 0 92
2019-04-02 07:00:00 7.3 7 Oeste 11 Oeste 0 940.1 -0.3 91
2019-04-02 06:00:00 8.3 8 Sudoeste 15 Sudoeste 0 940.1 -0.5 91
2019-04-02 05:00:00 8.8 10 Sudoeste 15 Sudoeste 0 940.2 -0.6 89
2019-04-02 04:00:00 8.8 7 Sudoeste 16 Sudoeste 0 940.4 -0.1 87
2019-04-02 03:00:00 10.1 12 Sudoeste 17 Sur 0 940.6 0.2 85
2019-04-02 02:00:00 10.3 15 Sur 20 Sur 0 940.8 0.5 84
2019-04-02 01:00:00 9.8 3 Norte 12 Sur 0 940.5 0.4 84
2019-04-02 00:00:00 9.2 8 Sur 11 Sur 0 940.4 1.1 85
2019-04-01 23:00:00 9 4 Sudoeste 8 Sudoeste 0 940.3 2 85
2019-04-01 22:00:00 10.3 4 Oeste 13 Noroeste 0 940.1 2.4 86
2019-04-01 21:00:00 11.4 11 Noroeste 27 Sudoeste 0 939.3 1.6 84
2019-04-01 20:00:00 12 19 Sudoeste 30 Sudoeste 0 938.3 1.2 82
2019-04-01 19:00:00 11.8 17 Sudoeste 30 Oeste 1.2 937.7 0.4 82
2019-04-01 18:00:00 13.8 15 Sudoeste 35 Sudoeste 0 937.7 0.1 76
2019-04-01 17:00:00 16.5 18 Sur 31 Sur 0 937.1 -1.1 52
2019-04-01 16:00:00 18 17 Sur 26 Sudeste 0 937.3 -1.3 50
2019-04-01 15:00:00 16.8 10 Sudoeste 27 Sudoeste 0 937.6 -0.9 48
2019-04-01 14:00:00 14.9 14 Sur 28 Sudoeste 0 938.2 0.2 55
2019-04-01 13:00:00 14.3 18 Sur 27 Sudoeste 0 938.6 1.4 66
2019-04-01 12:00:00 13.8 12 Sur 23 Sur 0 938.5 1.9 70
2019-04-01 11:00:00 13.7 15 Sudoeste 25 Sudoeste 0 938 1.6 74
2019-04-01 10:00:00 12.5 10 Sur 28 Sur 0 937.2 1 76
2019-04-01 09:00:00 10 23 Sur 32 Sudoeste 0 936.6 0.6 88
2019-04-01 08:00:00 9.9 20 Sur 28 Sur 0 936.4 0.3 90
2019-04-01 07:00:00 10.5 21 Sur 27 Sur 0 936.2 -0.1 91
2019-04-01 06:00:00 10 11 Sudoeste 25 Sur 0 936 -0.3 92
2019-04-01 05:00:00 10.1 19 Sur 35 Sur 0 936.1 -0.3 91
2019-04-01 04:00:00 10.5 14 Sur 30 Sur 0 936.3 -0.3 88
2019-04-01 03:00:00 10.8 22 Sur 28 Sur 0 936.3 -0.2 88
2019-04-01 02:00:00 11.3 16 Sur 23 Sur 0 936.4 -0.1 82
2019-04-01 01:00:00 9 8 Este 13 Este 0 936.6 0.6 83
2019-04-01 00:00:00 9.4 3 Sudeste 7 Este 0 936.5 1 81
2019-03-31 23:00:00 9.8 5 Oeste 14 Oeste 0 936.5 1.3 87
2019-03-31 22:00:00 10.6 3 Noroeste 8 Este 0 936 0.5 79
2019-03-31 21:00:00 11.4 5 Este 6 Sudeste 0 935.5 0.1 73
2019-03-31 20:00:00 12.6 3 Sudoeste 14 Noroeste 0 935.2 0.5 74
2019-03-31 19:00:00 12.3 12 Noroeste 20 Norte 0 935.5 0.4 76
2019-03-31 18:00:00 14 10 Nordeste 25 Sudoeste 0 935.4 -0.1 69
2019-03-31 17:00:00 16.3 19 Sudoeste 26 Sudoeste 0 934.7 -1.6 62
2019-03-31 16:00:00 13.2 13 Sudoeste 26 Sudoeste 1 935.1 -1.9 79
2019-03-31 15:00:00 19 11 Sur 18 Sudeste 0 935.5 -1.8 48
2019-03-31 14:00:00 15.6 3 Noroeste 13 Oeste 0 936.3 -0.9 59
2019-03-31 13:00:00 15.6 5 Sudoeste 16 Oeste 0 937 0.1 61
2019-03-31 12:00:00 14.3 13 Noroeste 19 Oeste 0 937.3 0.6 68
2019-03-31 11:00:00 14 3 Norte 9 Este 0 937.2 0.7 66
2019-03-31 10:00:00 12.9 3 Noroeste 9 Este 0 936.9 0.5 70
2019-03-31 09:00:00 9.4 4 Este 10 Este 0 936.7 0.3 84
2019-03-31 08:00:00 8.7 5 Sur 8 Este 0 936.5 -0.3 86
2019-03-31 07:00:00 9.3 2 Nordeste 17 Sudeste 0 936.4 -1 82
2019-03-31 06:00:00 9.5 8 Sudoeste 16 Sudoeste 0 936.4 -2.1 82
2019-03-31 05:00:00 9.5 11 Oeste 17 Oeste 0 936.8 -2.1 84
2019-03-31 03:00:00 11.2 6 Sudeste 19 Sudeste 0 938.5 -1.3 74
2019-03-31 01:00:00 10.9 4 Sudeste 8 Noroeste 0 938.9 -0.7 77
2019-03-31 00:00:00 11 5 Nordeste 19 Noroeste 0 939.3 0.6 76
2019-03-30 23:00:00 12.3 13 Noroeste 30 Oeste 0 939.8 1.6 67
2019-03-30 22:00:00 14.1 12 Noroeste 37 Sur 0 939.6 1.5 57
2019-03-30 21:00:00 15.1 23 Sur 30 Sur 0 938.7 0.6 52
2019-03-30 20:00:00 16 22 Sur 29 Sur 0 938.2 -0.1 50
2019-03-30 19:00:00 17.3 14 Sur 27 Sur 0 938.1 -0.4 45
2019-03-30 18:00:00 19.7 14 Este 21 Este 0 938.1 -1.2 35
2019-03-30 17:00:00 19.3 8 Este 23 Este 0 938.3 -1.9 36
2019-03-30 16:00:00 18.4 9 Este 27 Este 0 938.5 -2.5 38
2019-03-30 15:00:00 19.9 9 Este 23 Este 0 939.3 -2.5 36
2019-03-30 14:00:00 19.2 10 Sudeste 27 Este 0 940.2 -2 37
2019-03-30 13:00:00 18.1 15 Este 28 Este 0 941 -1.3 41
2019-03-30 12:00:00 16.1 19 Este 29 Este 0 941.8 -0.5 49
2019-03-30 11:00:00 14.6 20 Este 35 Este 0 942.2 -0.1 55
2019-03-30 10:00:00 12.1 25 Este 34 Sudeste 0 942.3 0 66
2019-03-30 09:00:00 9.6 15 Este 23 Este 0 942.3 0 80
2019-03-30 08:00:00 7.4 11 Este 15 Este 0 942.3 -0.2 89
2019-03-30 07:00:00 7 7 Este 17 Este 0 942.3 -0.6 87
2019-03-30 06:00:00 7.8 13 Este 17 Este 0 942.3 -0.7 85
2019-03-30 05:00:00 7.9 13 Este 23 Sudeste 0 942.5 -0.8 83
2019-03-30 04:00:00 8.9 15 Sudeste 36 Sudeste 0 942.9 -0.5 79
2019-03-30 03:00:00 10.3 29 Sudeste 46 Sur 0 943 -0.6 70
2019-03-30 02:00:00 11 31 Sur 48 Sur 0 943.3 -0.7 64
2019-03-30 01:00:00 11.2 32 Sur 44 Sur 0 943.4 -0.4 59
2019-03-30 00:00:00 12 22 Sur 29 Sur 0 943.6 0.1 48
2019-03-29 23:00:00 12.6 18 Sur 26 Sur 0 944 0.6 48
2019-03-29 22:00:00 13.7 15 Sur 29 Sudeste 0 943.8 0.5 44
2019-03-29 21:00:00 13.8 19 Sur 29 Sudeste 0 943.5 0.3 44
2019-03-29 20:00:00 14.2 15 Sur 20 Sur 0 943.4 0.1 41
2019-03-29 19:00:00 17.4 11 Sudoeste 19 Sudoeste 0 943.3 -0.3 28
2019-03-29 18:00:00 18.8 14 Sur 22 Sur 0 943.2 -0.9 25
2019-03-29 17:00:00 20 10 Sudoeste 22 Sur 0 943.3 -1.4 24
2019-03-29 16:00:00 19.7 12 Sudoeste 35 Sur 0 943.6 -1.5 26
2019-03-29 15:00:00 19 8 Sudeste 23 Sudeste 0 944.1 -1.5 26
2019-03-29 14:00:00 17.7 10 Sudoeste 34 Sudeste 0 944.7 -1.2 24
2019-03-29 13:00:00 17.3 18 Sudeste 32 Sudeste 0 945.1 -0.9 30
2019-03-29 12:00:00 16 21 Sudeste 37 Sudeste 0 945.6 -0.1 32
2019-03-29 11:00:00 14.2 22 Este 32 Este 0 945.9 0.2 39
2019-03-29 10:00:00 12.2 22 Este 31 Este 0 946 0.7 43
2019-03-29 09:00:00 9.7 18 Este 26 Sudeste 0 945.7 0.3 56
2019-03-29 08:00:00 6.6 18 Este 24 Este 0 945.7 0.5 72
2019-03-29 07:00:00 5.5 19 Sudeste 24 Sudeste 0 945.3 0.3 72
2019-03-29 06:00:00 5.2 18 Sudeste 26 Sudeste 0 945.4 -0.1 75
2019-03-29 05:00:00 5.8 14 Este 39 Sur 0 945.2 -0.6 68
2019-03-29 04:00:00 9.3 27 Sur 38 Sur 0 945 -0.9 54
2019-03-29 03:00:00 7.8 14 Sudeste 21 Sudeste 0 945.5 -0.5 61
2019-03-29 02:00:00 8.1 17 Este 43 Sur 0 945.8 -0.2 60
2019-03-29 01:00:00 10.1 27 Sur 36 Sur 0 945.9 -0.2 47
2019-03-29 00:00:00 10.7 26 Sur 33 Sur 0 946 0 36
2019-03-28 23:00:00 11.3 20 Sur 28 Sur 0 946 0.3 33
2019-03-28 22:00:00 11.8 23 Sur 32 Sur 0 946.1 0.4 32
2019-03-28 21:00:00 11.5 14 Sur 17 Sur 0 946 0.5 37
2019-03-28 20:00:00 12.3 14 Sur 19 Sudeste 0 945.7 0.2 32
2019-03-28 19:00:00 15.5 14 Sudeste 26 Sudeste 0 945.7 -0.1 24
2019-03-28 18:00:00 17.1 17 Sudeste 32 Este 0 945.5 -0.7 21
2019-03-28 17:00:00 17.4 17 Sudeste 32 Este 0 945.5 -1.4 19
2019-03-28 16:00:00 18.1 14 Sudeste 43 Sudeste 0 945.8 -1.6 24
2019-03-28 15:00:00 17.9 18 Sudeste 31 Este 0 946.2 -1.8 28
2019-03-28 14:00:00 17.1 18 Este 34 Sudeste 0 946.9 -1.3 21
2019-03-28 13:00:00 15.9 22 Este 43 Este 0 947.4 -0.7 18
2019-03-28 12:00:00 14.6 25 Este 40 Este 0 948 0 28
2019-03-28 11:00:00 13.7 25 Este 34 Este 0 948.2 0.5 45
2019-03-28 10:00:00 11.4 16 Este 23 Sudeste 0 948.1 1.1 69
2019-03-28 09:00:00 9.4 15 Este 21 Este 0 948 1.1 74
2019-03-28 08:00:00 7.2 12 Este 21 Sudeste 0 947.7 1 84
2019-03-28 07:00:00 4.9 15 Este 18 Sudeste 0 947 0.5 87
2019-03-28 06:00:00 5.3 5 Este 20 Este 0 946.9 0.4 77
2019-03-28 05:00:00 6.5 12 Este 30 Sur 0 946.7 -0.2 76
2019-03-28 04:00:00 9.2 24 Sur 34 Sur 0 946.5 -0.3 69
2019-03-28 03:00:00 9.2 25 Sur 35 Sur 0 946.5 0 59
2019-03-28 02:00:00 9.5 23 Sur 37 Sur 0 946.9 0.4 54
2019-03-28 01:00:00 10 26 Sur 37 Sur 0 946.8 0.6 50
2019-03-28 00:00:00 10.6 20 Sur 29 Sur 0 946.5 1 42
2019-03-27 23:00:00 10.7 17 Sudeste 25 Sudeste 0 946.5 1.7 27
2019-03-27 22:00:00 10.6 9 Este 18 Este 0 946.2 2.1 29
2019-03-27 21:00:00 12.1 13 Este 19 Este 0 945.5 2 25
2019-03-27 20:00:00 12.9 7 Este 27 Este 0 944.8 1.5 26
2019-03-27 19:00:00 17.1 16 Nordeste 32 Nordeste 0 944.1 0.4 16
2019-03-27 18:00:00 18.3 20 Este 35 Este 0 943.5 -0.5 14
2019-03-27 17:00:00 18.9 23 Este 41 Nordeste 0 943.3 -1 14
2019-03-27 16:00:00 19 22 Este 41 Este 0 943.7 -0.9 17
2019-03-27 15:00:00 18.1 27 Este 48 Nordeste 0 944 -1 19
2019-03-27 14:00:00 18.1 29 Este 45 Este 0 944.3 -0.8 17
2019-03-27 13:00:00 16.6 24 Este 36 Este 0 944.6 0.1 22
2019-03-27 12:00:00 15.2 21 Este 33 Sudeste 0 945 0.9 27
2019-03-27 11:00:00 13 22 Este 34 Este 0 945.1 1.5 37
2019-03-27 10:00:00 10.8 21 Este 28 Este 0 944.5 1.5 51
2019-03-27 09:00:00 8.6 15 Este 21 Este 0 944.1 1.6 80
2019-03-27 08:00:00 8.2 14 Este 19 Sudeste 0 943.6 1.6 82
2019-03-27 07:00:00 6.5 9 Este 16 Sudeste 0 943 1.7 86
2019-03-27 06:00:00 6.7 14 Sudeste 18 Sudeste 0 942.5 1.3 90
2019-03-27 05:00:00 6.9 5 Sudeste 17 Sudeste 0 942 0.7 80
2019-03-27 04:00:00 9.5 14 Sur 18 Sur 0 941.3 0.5 79
2019-03-27 03:00:00 9.1 13 Sudeste 16 Sudeste 0 941.2 0.6 77
2019-03-27 02:00:00 10.3 10 Este 20 Sudeste 0 941.3 1.5 66
2019-03-27 01:00:00 12.6 15 Sudeste 27 Sur 0 940.8 1.6 56
2019-03-27 00:00:00 13.2 16 Sudeste 31 Sudeste 0 940.6 2 51
2019-03-26 23:00:00 12.8 15 Sudeste 19 Sudeste 0 939.8 1.9 54
2019-03-26 22:00:00 14.5 4 Noroeste 21 Sur 0 939.2 1.6 47
2019-03-26 21:00:00 16.1 14 Sur 24 Sur 0 938.6 1.4 42
2019-03-26 20:00:00 16.4 15 Sur 21 Sur 0 937.9 0.8 39
2019-03-26 19:00:00 20.2 10 Sur 19 Sudeste 0 937.6 0.7 29
2019-03-26 18:00:00 21.6 13 Sur 23 Sur 0 937.2 0.1 25
2019-03-26 17:00:00 22.5 17 Sudeste 33 Este 0 937.1 -0.5 22
2019-03-26 16:00:00 22.2 15 Este 37 Este 0 936.9 -1.4 21
2019-03-26 15:00:00 22.2 15 Nordeste 36 Nordeste 0 937.1 -1.4 21
2019-03-26 14:00:00 21.6 19 Este 37 Sudeste 0 937.6 -1.2 22
2019-03-26 13:00:00 20.5 17 Este 36 Este 0 938.3 -0.1 25
2019-03-26 12:00:00 18.6 21 Este 30 Este 0 938.5 0.3 28
2019-03-26 11:00:00 15.5 15 Este 23 Este 0 938.8 0.6 34
2019-03-26 10:00:00 12.3 18 Este 28 Este 0 938.4 0.4 43
2019-03-26 09:00:00 10.5 17 Este 23 Sudeste 0 938.2 0.2 47
2019-03-26 08:00:00 8.5 15 Este 26 Este 0 938.2 0.3 49
2019-03-26 07:00:00 8.7 16 Este 24 Este 0 938 -0.3 53
2019-03-26 06:00:00 9.1 13 Este 18 Este 0 938 -0.5 49
2019-03-26 05:00:00 8.7 13 Sudeste 15 Sudeste 0 937.9 -1.1 65
2019-03-26 04:00:00 7.4 7 Este 18 Sudeste 0 938.3 -0.8 53
2019-03-26 03:00:00 10.2 9 Sudeste 19 Sur 0 938.5 -0.8 60
2019-03-26 02:00:00 11.8 12 Sudeste 17 Sudeste 0 939 -0.5 53
2019-03-26 01:00:00 10.9 13 Este 17 Este 0 939.1 -0.5 35
2019-03-26 00:00:00 11.3 10 Este 14 Este 0 939.3 -0.1 34
2019-03-25 23:00:00 11.7 9 Este 13 Este 0 939.5 0.4 34
2019-03-25 22:00:00 12.8 9 Este 19 Este 0 939.6 0.6 32
2019-03-25 21:00:00 13.7 10 Este 16 Este 0 939.4 0.6 32
2019-03-25 20:00:00 17 11 Este 27 Nordeste 0 939.1 0.1 26
2019-03-25 19:00:00 19.3 18 Nordeste 33 Nordeste 0 939 -0.7 22
2019-03-25 18:00:00 20.6 17 Nordeste 33 Nordeste 0 938.8 -1.8 21
2019-03-25 17:00:00 21.1 22 Este 36 Este 0 939 -2.5 22
2019-03-25 16:00:00 21.3 22 Este 41 Este 0 939.7 -2.7 24
2019-03-25 15:00:00 20.8 24 Este 39 Este 0 940.6 -2.7 26
2019-03-25 14:00:00 20.2 21 Este 38 Este 0 941.5 -2.3 26
2019-03-25 13:00:00 19.5 18 Este 32 Este 0 942.4 -1.5 29
2019-03-25 12:00:00 17.9 20 Este 32 Sudeste 0 943.3 -0.3 34
2019-03-25 11:00:00 16 22 Este 31 Este 0 943.8 0.3 44
2019-03-25 10:00:00 13 15 Este 23 Este 0 943.9 0.8 61
2019-03-25 09:00:00 10.1 14 Este 20 Este 0 943.6 0.3 66
2019-03-25 08:00:00 9 10 Este 13 Este 0 943.5 0.1 70
2019-03-25 07:00:00 8 9 Este 11 Este 0 943.1 -0.5 72
2019-03-25 06:00:00 8.9 6 Este 11 Este 0 943.3 -0.4 74
2019-03-25 05:00:00 10.2 8 Este 9 Este 0 943.4 -0.5 67
2019-03-25 04:00:00 9.6 6 Este 8 Este 0 943.6 -0.5 66
2019-03-25 03:00:00 10.2 6 Este 8 Este 0 943.7 -0.8 64
2019-03-25 02:00:00 10.3 8 Sudeste 9 Sudeste 0 943.9 -0.8 64
2019-03-25 01:00:00 10.8 5 Sudeste 6 Sudoeste 0 944.1 -0.8 62
2019-03-25 00:00:00 11.6 4 Sudoeste 28 Sur 0 944.5 0 65
2019-03-24 23:00:00 12.5 14 Sur 24 Sur 0 944.7 0.7 61
2019-03-24 22:00:00 13.2 18 Sur 24 Sur 0 944.9 1.4 54
2019-03-24 21:00:00 12.9 13 Sudeste 19 Sudeste 0 944.5 1.2 54
2019-03-24 20:00:00 13.4 11 Sudeste 23 Este 0 944 1 50
2019-03-24 19:00:00 17.1 14 Sudeste 27 Sudeste 0 943.5 0.3 40
2019-03-24 18:00:00 18.1 23 Sudeste 34 Este 0 943.3 -0.1 39
2019-03-24 17:00:00 19.4 17 Sudeste 32 Sudeste 0 943 -1 35
2019-03-24 16:00:00 19.1 18 Sudeste 35 Este 0 943.2 -1.5 33
2019-03-24 15:00:00 19.5 23 Sudeste 40 Este 0 943.4 -1.5 34
2019-03-24 14:00:00 19.1 23 Sudeste 45 Este 0 944 -1 34
2019-03-24 13:00:00 16.4 19 Este 42 Este 0 944.7 -0.1 42
2019-03-24 12:00:00 16.9 19 Este 30 Este 0 944.9 0.5 41
2019-03-24 11:00:00 13.8 17 Este 24 Este 0 945 0.9 55
2019-03-24 10:00:00 10.8 16 Este 22 Este 0 944.8 1.1 69
2019-03-24 09:00:00 9 13 Este 18 Sudeste 0 944.4 0.8 73
2019-03-24 08:00:00 6.3 12 Sudeste 20 Sudeste 0 944.1 0.5 82
2019-03-24 07:00:00 5.7 14 Sudeste 20 Este 0 943.7 0 86
2019-03-24 06:00:00 6.2 14 Este 21 Sudeste 0 943.6 -0.4 82
2019-03-24 05:00:00 5.9 14 Este 18 Sudeste 0 943.6 -0.6 82
2019-03-24 04:00:00 6.6 15 Este 21 Este 0 943.7 -0.7 79
2019-03-24 03:00:00 7.1 14 Este 19 Este 0 944 -0.8 75
2019-03-24 02:00:00 7.2 8 Este 12 Este 0 944.2 -0.7 71
2019-03-24 01:00:00 8.8 3 Este 21 Este 0 944.4 -0.5 67
2019-03-24 00:00:00 9.5 14 Sudeste 21 Sudeste 0 944.8 0.2 66
2019-03-23 23:00:00 11.3 15 Sudeste 24 Sudeste 0 944.9 1.2 57
2019-03-23 22:00:00 12.9 15 Sudeste 29 Sudeste 0 944.9 1.3 52
2019-03-23 21:00:00 13.3 15 Este 25 Este 0 944.6 1.4 42
2019-03-23 20:00:00 12.4 9 Sudeste 17 Sudeste 0 943.7 0.5 42
2019-03-23 19:00:00 16 14 Sudeste 30 Sudeste 0 943.6 0.1 33
2019-03-23 18:00:00 17.7 19 Sudeste 38 Este 0 943.2 -0.8 31
2019-03-23 17:00:00 18.4 22 Este 40 Este 0 943.2 -1.4 30
2019-03-23 16:00:00 19 21 Este 48 Sudeste 0 943.5 -1.8 29
2019-03-23 15:00:00 18.4 30 Este 47 Este 0 944 -1.8 30
2019-03-23 14:00:00 18.6 31 Este 50 Este 0 944.6 -2.1 30
2019-03-23 13:00:00 17.7 32 Este 52 Este 0 945.3 -1.7 31
2019-03-23 12:00:00 16.9 33 Este 48 Este 0 945.8 -1.3 29
2019-03-23 11:00:00 14.8 22 Este 34 Este 0 946.7 -0.1 43
2019-03-23 10:00:00 12.6 20 Este 28 Este 0 947 0.3 55
2019-03-23 09:00:00 10.3 13 Este 19 Este 0 947.1 0.3 61
2019-03-23 08:00:00 7.1 14 Este 21 Sudeste 0 946.8 -0.1 71
2019-03-23 07:00:00 5.4 15 Este 18 Sudeste 0 946.7 -0.3 79
2019-03-23 06:00:00 5.4 13 Este 16 Este 0 946.8 -0.5 77
2019-03-23 05:00:00 6 9 Este 13 Este 0 946.9 -0.7 68
2019-03-23 04:00:00 6.3 5 Este 12 Sudeste 0 947 -0.3 61
2019-03-23 03:00:00 8.5 10 Sudeste 17 Sur 0 947.3 0 61
2019-03-23 02:00:00 7.1 11 Este 16 Este 0 947.6 0.2 57
2019-03-23 01:00:00 9.2 5 Sudeste 13 Sudeste 0 947.3 0 48
2019-03-23 00:00:00 9.7 8 Sudeste 15 Sudeste 0 947.3 0.3 48
2019-03-22 23:00:00 10.3 6 Este 11 Este 0 947.4 0.8 44
2019-03-22 22:00:00 10.7 6 Este 13 Este 0 947.3 0.9 43
2019-03-22 21:00:00 10.8 7 Este 13 Este 0 947 1 44
2019-03-22 20:00:00 12.2 5 Este 22 Nordeste 0 946.6 0.3 42
2019-03-22 19:00:00 15.7 13 Nordeste 28 Nordeste 0 946.4 -0.3 30
2019-03-22 18:00:00 17.1 16 Nordeste 35 Nordeste 0 946 -1.1 24
2019-03-22 17:00:00 17.3 13 Nordeste 28 Nordeste 0 946.3 -1.2 23
2019-03-22 16:00:00 16.9 15 Nordeste 43 Este 0 946.7 -1.4 23
2019-03-22 15:00:00 16.4 18 Este 31 Este 0 947.1 -1.5 24
2019-03-22 14:00:00 16 17 Este 39 Este 0 947.5 -1.2 28
2019-03-22 13:00:00 14.5 17 Este 29 Este 0 948.1 -0.6 27
2019-03-22 12:00:00 13 16 Este 32 Este 0 948.6 0.2 33
2019-03-22 11:00:00 11.9 14 Este 23 Este 0 948.7 0.4 39
2019-03-22 10:00:00 10 11 Este 19 Este 0 948.7 0.8 59
2019-03-22 09:00:00 8.4 13 Este 19 Sudeste 0 948.4 0.7 75
2019-03-22 08:00:00 5.8 12 Este 23 Sudeste 0 948.3 0.7 84
2019-03-22 07:00:00 5.5 11 Este 20 Sur 0 947.9 0.3 82
2019-03-22 06:00:00 7.6 17 Sur 26 Sur 0 947.7 0 71
2019-03-22 05:00:00 7.3 5 Sur 25 Sur 0 947.6 -0.2 68
2019-03-22 04:00:00 6.6 5 Noroeste 10 Oeste 0 947.6 -0.4 66
2019-03-22 03:00:00 7.7 5 Sur 30 Sur 0 947.7 -0.6 61
2019-03-22 02:00:00 8.1 19 Sur 27 Sur 0 947.8 -0.4 55
2019-03-22 01:00:00 7.8 12 Sudeste 22 Sudeste 0 948 -0.1 40
2019-03-22 00:00:00 8.2 17 Sudeste 22 Sudeste 0 948.3 0.7 40
2019-03-21 23:00:00 7.6 9 Este 15 Sudeste 0 948.2 1.1 43
2019-03-21 22:00:00 8.8 13 Sudeste 20 Este 0 948.1 1.2 39
2019-03-21 21:00:00 8.8 6 Este 13 Nordeste 0 947.6 0.9 39
2019-03-21 20:00:00 12.3 8 Nordeste 18 Nordeste 0 947.1 0.3 30
2019-03-21 19:00:00 13.9 12 Nordeste 24 Este 0 946.9 -0.1 25
2019-03-21 18:00:00 15.1 16 Nordeste 32 Nordeste 0 946.7 -0.7 23
2019-03-21 17:00:00 15.8 14 Este 31 Nordeste 0 946.8 -1.4 23
2019-03-21 16:00:00 15.9 14 Este 37 Este 0 947 -1.6 22
2019-03-21 15:00:00 15.6 17 Este 33 Este 0 947.4 -1.6 23
2019-03-21 14:00:00 15 23 Este 37 Este 0 948.2 -1 27
2019-03-21 13:00:00 14.4 22 Este 37 Este 0 948.6 -0.5 26
2019-03-21 12:00:00 13.3 23 Este 34 Este 0 949 0.1 39
2019-03-21 11:00:00 12 22 Este 32 Este 0 949.2 0.6 58
2019-03-21 10:00:00 11.5 17 Este 27 Este 0 949.1 1 60
2019-03-21 09:00:00 9.7 10 Este 19 Sudeste 0 948.9 1.4 74
2019-03-21 08:00:00 6.2 13 Sudeste 24 Sudeste 0 948.6 1.1 83
2019-03-21 07:00:00 6.9 15 Sur 23 Sur 0 948.1 0.8 74
2019-03-21 06:00:00 7.3 17 Sur 26 Sur 0 947.5 -0.4 71
2019-03-21 05:00:00 5.4 11 Este 25 Sur 0 947.5 -0.4 79
2019-03-21 04:00:00 7.1 17 Sur 23 Sur 0 947.3 -0.8 75
2019-03-21 03:00:00 6.6 5 Sudeste 10 Sudeste 0 947.9 -0.3 67
2019-03-21 02:00:00 7.9 3 Norte 12 Sudeste 0 947.9 -0.5 56
2019-03-21 01:00:00 8.1 10 Sudeste 19 Sudeste 0 948.1 -0.3 54
2019-03-21 00:00:00 7.8 9 Sudeste 17 Sudeste 0 948.2 0.1 50